Ghedi Airport LIPL

Flugplatz Daten

Name: Ghedi Airport

Ident: LIPL

Lat: 45,43220139

Long: 10,2677002

Platzhöhe: 333 ft

IataCode:

City: Ghedi

Metar

2021/08/05 14:55
LIPL 051455Z 26007KT CAVOK 28/18 Q1005 RMK SCT SCT120 VIS MIN 9999 WIND THR31 26008KT WIND THR13 27007KT BLU

Taf

2021/07/07 09:24
TAF TAF LIPL 070800Z 0709/0721 12008KT CAVOK
Gewünschte Webcam nicht vorhanden? Dann fügen Sie eine hinzu. Sie wird dann so schnell wie möglich freigeschaltet
Url: Title: